createdAt,value
2019-03-10T00:01:06.139Z,3.80
2019-03-10T00:02:14.426Z,24.23
2019-03-10T00:03:22.324Z,106.63
2019-03-10T00:04:30.318Z,58.03
2019-03-10T00:05:38.465Z,22.60
2019-03-10T00:06:46.608Z,27.33
2019-03-10T00:07:54.666Z,3.10
2019-03-10T00:09:04.691Z,18.77
2019-03-10T00:10:13.322Z,3.37
2019-03-10T00:11:21.372Z,48.83
2019-03-10T00:12:29.557Z,69.47
2019-03-10T00:13:37.567Z,4.63
2019-03-10T00:14:45.743Z,28.97
2019-03-10T00:15:53.896Z,6.27
2019-03-10T00:17:02.125Z,2.43
2019-03-10T00:18:10.816Z,1.47
2019-03-10T00:19:18.953Z,23.77
2019-03-10T00:20:27.054Z,54.83
2019-03-10T00:21:35.246Z,44.80
2019-03-10T00:22:43.246Z,3.47
2019-03-10T00:23:51.340Z,20.27
2019-03-10T00:24:59.537Z,23.80
2019-03-10T00:26:07.852Z,0.93
2019-03-10T00:27:16.037Z,2.43
2019-03-10T00:28:24.015Z,66.43
2019-03-10T00:29:32.588Z,90.97
2019-03-10T00:30:41.349Z,12.07
2019-03-10T00:31:49.299Z,40.77
2019-03-10T00:32:57.655Z,3.40
2019-03-10T00:34:06.173Z,22.37
2019-03-10T00:35:14.681Z,6.00
2019-03-10T00:36:24.401Z,64.40
2019-03-10T00:37:32.612Z,74.17
2019-03-10T00:38:51.051Z,4.53
2019-03-10T00:40:51.560Z,1.33
2019-03-10T00:42:32.667Z,3.80
2019-03-10T00:44:20.250Z,2.57
2019-03-10T00:46:24.611Z,95.33
2019-03-10T00:48:01.694Z,77.30
2019-03-10T00:49:47.021Z,2.63
2019-03-10T00:51:35.567Z,159.77
2019-03-10T00:53:02.611Z,286.60
2019-03-10T00:54:10.850Z,244.50
2019-03-10T00:55:19.161Z,140.60
2019-03-10T00:56:27.512Z,99.70
2019-03-10T00:57:35.773Z,222.10
2019-03-10T00:58:44.142Z,128.10
2019-03-10T00:59:52.734Z,146.90
2019-03-10T01:01:00.771Z,137.80
2019-03-10T01:02:09.228Z,236.30
2019-03-10T01:03:17.656Z,206.70
2019-03-10T01:04:25.737Z,239.33
2019-03-10T01:05:33.871Z,271.83
2019-03-10T01:06:42.259Z,204.87
2019-03-10T01:07:50.388Z,243.40
2019-03-10T01:08:59.110Z,176.07
2019-03-10T01:10:09.510Z,236.20
2019-03-10T01:11:18.214Z,227.60
2019-03-10T01:12:26.806Z,229.67
2019-03-10T01:13:35.004Z,261.10
2019-03-10T01:14:43.817Z,200.53
2019-03-10T01:15:52.647Z,142.60
2019-03-10T01:17:02.086Z,118.27
2019-03-10T01:19:06.307Z,126.23
2019-03-10T01:20:17.260Z,86.90
2019-03-10T01:21:27.361Z,213.87
2019-03-10T01:22:35.668Z,241.20
2019-03-10T01:23:43.770Z,154.77
2019-03-10T01:24:51.808Z,154.23
2019-03-10T01:26:00.687Z,152.57
2019-03-10T01:27:09.141Z,147.20
2019-03-10T01:28:17.612Z,123.43
2019-03-10T01:29:25.767Z,243.93
2019-03-10T01:30:38.286Z,312.67
2019-03-10T01:32:05.687Z,230.20
2019-03-10T01:33:23.606Z,226.90
2019-03-10T01:34:55.524Z,314.03
2019-03-10T01:36:04.141Z,187.47
2019-03-10T01:37:12.704Z,163.67
2019-03-10T01:38:20.985Z,163.90
2019-03-10T01:39:29.474Z,215.77
2019-03-10T01:40:37.663Z,268.27
2019-03-10T01:41:45.920Z,223.60
2019-03-10T01:42:54.464Z,250.97
2019-03-10T01:44:02.670Z,252.33
2019-03-10T01:45:13.566Z,231.73
2019-03-10T01:46:21.698Z,228.80
2019-03-10T01:47:29.697Z,296.10
2019-03-10T01:48:37.853Z,296.90
2019-03-10T01:49:46.012Z,232.27
2019-03-10T01:50:54.112Z,190.73
2019-03-10T01:52:02.312Z,216.17
2019-03-10T01:53:10.259Z,234.83
2019-03-10T01:54:18.709Z,193.20
2019-03-10T01:55:26.709Z,198.83
2019-03-10T01:56:34.704Z,203.97
2019-03-10T01:57:42.911Z,190.23
2019-03-10T01:58:51.302Z,12.87
2019-03-10T01:59:59.299Z,23.80
2019-03-10T02:01:07.588Z,6.33
2019-03-10T02:02:24.813Z,5.70
2019-03-10T02:03:25.259Z,11.87
2019-03-10T02:04:33.852Z,77.03
2019-03-10T02:05:42.210Z,299.23
2019-03-10T02:06:50.238Z,177.13
2019-03-10T02:07:58.644Z,181.00
2019-03-10T02:09:07.657Z,158.67
2019-03-10T02:10:16.034Z,123.90
2019-03-10T02:11:24.161Z,78.93
2019-03-10T02:12:32.339Z,194.13
2019-03-10T02:13:40.426Z,226.63
2019-03-10T02:14:48.351Z,226.17
2019-03-10T02:15:56.533Z,195.37
2019-03-10T02:17:04.937Z,172.47
2019-03-10T02:18:13.250Z,201.33
2019-03-10T02:19:21.265Z,139.67
2019-03-10T02:20:29.450Z,219.67
2019-03-10T02:21:37.545Z,200.43
2019-03-10T02:22:45.951Z,198.50
2019-03-10T02:23:54.290Z,204.90
2019-03-10T02:25:02.414Z,183.17
2019-03-10T02:26:10.497Z,170.37
2019-03-10T02:27:18.888Z,201.63
2019-03-10T02:28:26.903Z,219.73
2019-03-10T02:29:34.765Z,246.90
2019-03-10T02:30:42.787Z,269.00
2019-03-10T02:31:51.220Z,241.47
2019-03-10T02:32:59.210Z,154.17
2019-03-10T02:34:07.323Z,190.70
2019-03-10T02:35:15.915Z,133.03
2019-03-10T02:36:24.109Z,174.67
2019-03-10T02:37:32.541Z,246.30
2019-03-10T02:38:40.615Z,219.73
2019-03-10T02:39:48.710Z,124.47
2019-03-10T02:40:56.973Z,109.90
2019-03-10T02:42:05.283Z,62.63
2019-03-10T02:43:13.433Z,22.37
2019-03-10T02:44:21.808Z,3.63
2019-03-10T02:45:30.081Z,26.67
2019-03-10T02:46:38.243Z,43.17
2019-03-10T02:47:46.353Z,45.27
2019-03-10T02:48:54.253Z,3.90
2019-03-10T02:50:02.310Z,1.57
2019-03-10T02:51:10.897Z,7.37
2019-03-10T02:52:25.624Z,5.40
2019-03-10T02:53:33.583Z,63.23
2019-03-10T02:54:41.780Z,145.63
2019-03-10T02:55:49.970Z,126.30
2019-03-10T02:56:57.927Z,33.93
2019-03-10T02:58:05.795Z,127.23
2019-03-10T02:59:13.922Z,70.33
2019-03-10T03:00:22.028Z,87.10
2019-03-10T03:01:30.094Z,58.97
2019-03-10T03:02:38.099Z,81.67
2019-03-10T03:03:46.185Z,137.80
2019-03-10T03:04:54.127Z,14.77
2019-03-10T03:06:02.047Z,126.37
2019-03-10T03:07:10.320Z,52.10
2019-03-10T03:08:18.619Z,35.63
2019-03-10T03:09:26.661Z,8.03
2019-03-10T03:10:34.715Z,74.53
2019-03-10T03:11:43.423Z,91.97
2019-03-10T03:12:51.626Z,96.53
2019-03-10T03:13:59.869Z,142.80
2019-03-10T03:15:10.793Z,128.87
2019-03-10T03:16:19.426Z,193.33
2019-03-10T03:17:27.736Z,169.47
2019-03-10T03:18:35.985Z,247.83
2019-03-10T03:19:44.111Z,194.67
2019-03-10T03:20:51.980Z,194.93
2019-03-10T03:22:00.030Z,213.17
2019-03-10T03:23:08.300Z,155.20
2019-03-10T03:24:16.539Z,205.53
2019-03-10T03:25:25.075Z,152.83
2019-03-10T03:26:33.084Z,210.53
2019-03-10T03:27:41.437Z,235.33
2019-03-10T03:28:49.702Z,212.17
2019-03-10T03:29:57.693Z,168.37
2019-03-10T03:31:05.823Z,142.63
2019-03-10T03:32:13.971Z,209.40
2019-03-10T03:33:22.438Z,215.00
2019-03-10T03:34:30.417Z,159.60
2019-03-10T03:35:51.458Z,294.03
2019-03-10T03:36:59.654Z,141.87
2019-03-10T03:38:07.645Z,114.57
2019-03-10T03:39:26.709Z,146.70
2019-03-10T03:40:34.950Z,211.20
2019-03-10T03:41:43.128Z,273.43
2019-03-10T03:42:51.201Z,149.77
2019-03-10T03:43:59.387Z,186.00
2019-03-10T03:45:08.163Z,159.57
2019-03-10T03:46:16.342Z,162.40
2019-03-10T03:47:24.624Z,14.77
2019-03-10T03:48:32.949Z,87.73
2019-03-10T03:49:40.932Z,189.90
2019-03-10T03:50:49.029Z,188.57
2019-03-10T03:51:57.021Z,5.63
2019-03-10T03:53:05.014Z,3.67
2019-03-10T03:54:13.259Z,5.30
2019-03-10T03:55:21.539Z,11.77
2019-03-10T03:56:29.714Z,8.37
2019-03-10T03:57:38.120Z,88.17
2019-03-10T03:58:46.241Z,78.77
2019-03-10T03:59:54.109Z,23.57
2019-03-10T04:01:03.943Z,11.90
2019-03-10T04:02:13.668Z,23.97
2019-03-10T04:03:21.992Z,14.60
2019-03-10T04:04:30.598Z,18.63
2019-03-10T04:05:38.882Z,70.80
2019-03-10T04:06:47.192Z,75.97
2019-03-10T04:07:55.250Z,17.53
2019-03-10T04:09:04.919Z,16.03
2019-03-10T04:10:13.216Z,12.73
2019-03-10T04:11:21.199Z,15.23
2019-03-10T04:12:29.624Z,18.33
2019-03-10T04:13:38.030Z,103.37
2019-03-10T04:14:46.011Z,97.40
2019-03-10T04:15:55.170Z,23.63
2019-03-10T04:17:03.019Z,95.13
2019-03-10T04:18:11.447Z,102.87
2019-03-10T04:19:19.442Z,145.93
2019-03-10T04:20:28.177Z,99.13
2019-03-10T04:21:36.390Z,184.63
2019-03-10T04:22:44.562Z,217.17
2019-03-10T04:23:52.891Z,113.10
2019-03-10T04:25:01.176Z,224.43
2019-03-10T04:26:09.381Z,172.90
2019-03-10T04:27:17.377Z,201.37
2019-03-10T04:28:25.710Z,208.10
2019-03-10T04:29:34.084Z,194.67
2019-03-10T04:30:42.387Z,232.50
2019-03-10T04:31:50.686Z,193.03
2019-03-10T04:32:58.875Z,155.67
2019-03-10T04:34:08.175Z,164.63
2019-03-10T04:35:16.814Z,205.00
2019-03-10T04:36:26.289Z,182.70
2019-03-10T04:37:35.899Z,192.17
2019-03-10T04:38:44.285Z,275.80
2019-03-10T04:39:52.583Z,213.70
2019-03-10T04:41:00.880Z,148.77
2019-03-10T04:42:09.082Z,104.80
2019-03-10T04:43:17.077Z,97.87
2019-03-10T04:44:25.130Z,52.57
2019-03-10T04:45:33.379Z,15.50
2019-03-10T04:46:41.672Z,116.90
2019-03-10T04:47:49.524Z,179.20
2019-03-10T04:48:57.467Z,131.00
2019-03-10T04:50:07.712Z,150.07
2019-03-10T04:51:16.005Z,126.70
2019-03-10T04:52:24.083Z,114.27
2019-03-10T04:53:32.714Z,114.63
2019-03-10T04:54:59.358Z,175.17
2019-03-10T04:56:21.476Z,128.07
2019-03-10T04:57:29.793Z,133.47
2019-03-10T04:58:39.526Z,137.43
2019-03-10T04:59:47.924Z,207.57
2019-03-10T05:00:57.968Z,167.77
2019-03-10T05:02:06.458Z,167.97
2019-03-10T05:03:14.863Z,133.77
2019-03-10T05:04:22.879Z,118.97
2019-03-10T05:05:30.969Z,137.40
2019-03-10T05:06:39.072Z,152.97
2019-03-10T05:07:47.120Z,181.10
2019-03-10T05:08:55.447Z,111.43
2019-03-10T05:10:04.213Z,113.33
2019-03-10T05:11:12.366Z,111.77
2019-03-10T05:12:20.426Z,135.53
2019-03-10T05:13:29.087Z,62.83
2019-03-10T05:14:37.013Z,79.63
2019-03-10T05:15:45.256Z,195.93
2019-03-10T05:16:53.202Z,168.60
2019-03-10T05:18:01.327Z,100.50
2019-03-10T05:19:27.601Z,128.10
2019-03-10T05:20:35.723Z,44.10
2019-03-10T05:21:43.794Z,120.60
2019-03-10T05:22:51.964Z,111.37
2019-03-10T05:24:03.871Z,30.47
2019-03-10T05:25:16.393Z,69.13
2019-03-10T05:26:24.640Z,14.70
2019-03-10T05:27:33.069Z,29.30
2019-03-10T05:28:45.518Z,112.97
2019-03-10T05:29:53.586Z,122.23
2019-03-10T05:31:01.892Z,67.63
2019-03-10T05:32:09.800Z,89.97
2019-03-10T05:33:17.715Z,83.60
2019-03-10T05:34:25.850Z,115.43
2019-03-10T05:35:34.048Z,229.83
2019-03-10T05:36:42.279Z,278.70
2019-03-10T05:37:50.278Z,293.10
2019-03-10T05:38:58.058Z,248.40
2019-03-10T05:40:08.551Z,190.90
2019-03-10T05:41:17.049Z,180.97
2019-03-10T05:42:25.177Z,193.60
2019-03-10T05:43:33.289Z,169.10
2019-03-10T05:44:41.367Z,206.83
2019-03-10T05:45:49.374Z,238.40
2019-03-10T05:46:57.665Z,210.87
2019-03-10T05:48:06.070Z,232.63
2019-03-10T05:49:14.256Z,191.70
2019-03-10T05:50:22.340Z,202.33
2019-03-10T05:51:30.591Z,186.30
2019-03-10T05:52:38.668Z,225.90
2019-03-10T05:53:46.860Z,295.30
2019-03-10T05:54:54.879Z,295.10
2019-03-10T05:56:02.988Z,224.47
2019-03-10T05:57:11.253Z,228.27
2019-03-10T05:58:19.433Z,243.53
2019-03-10T05:59:27.528Z,223.43
2019-03-10T06:00:42.566Z,222.87
2019-03-10T06:01:45.704Z,286.83
2019-03-10T06:02:53.764Z,294.53
2019-03-10T06:04:01.785Z,224.73
2019-03-10T06:05:10.272Z,225.63
2019-03-10T06:06:18.485Z,227.60
2019-03-10T06:07:26.581Z,245.13
2019-03-10T06:08:34.366Z,224.67
2019-03-10T06:09:42.379Z,233.03
2019-03-10T06:10:50.660Z,292.93
2019-03-10T06:11:58.734Z,275.17
2019-03-10T06:13:06.853Z,224.03
2019-03-10T06:14:14.689Z,222.90
2019-03-10T06:15:22.923Z,223.57
2019-03-10T06:16:30.894Z,224.70
2019-03-10T06:17:39.178Z,208.63
2019-03-10T06:18:47.151Z,249.53
2019-03-10T06:19:55.128Z,286.47
2019-03-10T06:21:03.032Z,210.77
2019-03-10T06:22:11.093Z,187.70
2019-03-10T06:23:19.234Z,207.37
2019-03-10T06:24:27.258Z,192.40
2019-03-10T06:25:35.437Z,250.63
2019-03-10T06:26:45.875Z,268.33
2019-03-10T06:27:54.122Z,295.67
2019-03-10T06:29:02.403Z,252.83
2019-03-10T06:30:12.628Z,207.47
2019-03-10T06:31:20.799Z,251.20
2019-03-10T06:32:29.215Z,221.67
2019-03-10T06:33:37.307Z,207.13
2019-03-10T06:34:45.288Z,249.57
2019-03-10T06:35:53.439Z,275.53
2019-03-10T06:37:01.436Z,219.40
2019-03-10T06:38:09.572Z,156.90
2019-03-10T06:39:17.363Z,170.93
2019-03-10T06:40:32.180Z,198.60
2019-03-10T06:41:35.745Z,192.70
2019-03-10T06:42:43.924Z,191.90
2019-03-10T06:43:52.049Z,272.73
2019-03-10T06:45:00.297Z,297.43
2019-03-10T06:46:08.349Z,225.73
2019-03-10T06:47:16.523Z,233.20
2019-03-10T06:48:24.945Z,216.77
2019-03-10T06:49:33.241Z,219.73
2019-03-10T06:50:41.579Z,240.60
2019-03-10T06:51:49.793Z,269.67
2019-03-10T06:52:57.955Z,258.03
2019-03-10T06:54:06.171Z,205.10
2019-03-10T06:55:14.372Z,116.07
2019-03-10T06:56:22.408Z,34.47
2019-03-10T06:57:30.978Z,37.87
2019-03-10T06:58:39.283Z,61.10
2019-03-10T06:59:49.823Z,86.70
2019-03-10T07:00:57.491Z,85.10
2019-03-10T07:02:05.715Z,97.37
2019-03-10T07:03:13.894Z,131.97
2019-03-10T07:04:22.068Z,142.27
2019-03-10T07:05:30.821Z,95.07
2019-03-10T07:06:38.803Z,35.63
2019-03-10T07:07:46.909Z,34.33
2019-03-10T07:08:55.092Z,70.83
2019-03-10T07:10:03.498Z,61.63
2019-03-10T07:11:11.626Z,8.80
2019-03-10T07:12:19.852Z,9.73
2019-03-10T07:13:28.402Z,62.17
2019-03-10T07:14:36.395Z,90.53
2019-03-10T07:15:44.695Z,144.17
2019-03-10T07:16:52.862Z,202.60
2019-03-10T07:18:00.984Z,267.63
2019-03-10T07:19:08.988Z,174.03
2019-03-10T07:20:22.993Z,194.77
2019-03-10T07:21:31.124Z,181.63
2019-03-10T07:22:39.275Z,112.83
2019-03-10T07:23:47.703Z,120.73
2019-03-10T07:24:56.125Z,136.00
2019-03-10T07:26:07.277Z,168.23
2019-03-10T07:27:15.695Z,77.47
2019-03-10T07:28:28.402Z,99.17
2019-03-10T07:29:41.374Z,193.30
2019-03-10T07:30:54.067Z,256.40
2019-03-10T07:32:04.183Z,270.30
2019-03-10T07:33:23.124Z,227.63
2019-03-10T07:34:42.028Z,228.30
2019-03-10T07:35:53.119Z,262.47
2019-03-10T07:37:18.997Z,294.63
2019-03-10T07:38:33.184Z,236.87
2019-03-10T07:39:45.607Z,226.33
2019-03-10T07:40:55.849Z,177.17
2019-03-10T07:42:14.837Z,191.87
2019-03-10T07:43:31.026Z,148.03
2019-03-10T07:44:50.121Z,45.77
2019-03-10T07:46:00.060Z,102.63
2019-03-10T07:47:13.060Z,92.77
2019-03-10T07:48:32.382Z,38.03
2019-03-10T07:49:42.183Z,52.73
2019-03-10T07:50:54.213Z,32.00
2019-03-10T07:52:20.288Z,85.33
2019-03-10T07:53:24.860Z,24.77
2019-03-10T07:54:32.935Z,72.27
2019-03-10T07:55:51.838Z,122.43
2019-03-10T07:57:17.657Z,200.20
2019-03-10T07:58:27.484Z,131.50
2019-03-10T07:59:53.917Z,118.13
2019-03-10T08:01:12.751Z,89.73
2019-03-10T08:02:38.454Z,11.73
2019-03-10T08:03:50.666Z,91.33
2019-03-10T08:05:09.463Z,156.40
2019-03-10T08:06:18.890Z,97.10
2019-03-10T08:07:29.424Z,76.00
2019-03-10T08:08:42.018Z,79.30
2019-03-10T08:09:51.615Z,132.17
2019-03-10T08:11:07.204Z,188.20
2019-03-10T08:12:16.844Z,149.60
2019-03-10T08:13:29.151Z,115.40
2019-03-10T08:14:54.213Z,72.00
2019-03-10T08:16:16.703Z,77.07
2019-03-10T08:17:26.219Z,114.47
2019-03-10T08:18:35.879Z,91.27
2019-03-10T08:20:01.424Z,159.87
2019-03-10T08:21:09.162Z,213.90
2019-03-10T08:22:19.832Z,77.67
2019-03-10T08:23:45.528Z,76.63
2019-03-10T08:25:04.185Z,143.67
2019-03-10T08:26:13.959Z,130.93
2019-03-10T08:27:32.704Z,99.63
2019-03-10T08:28:42.144Z,126.50
2019-03-10T08:29:51.665Z,148.03
2019-03-10T08:31:04.200Z,133.97
2019-03-10T08:32:22.519Z,180.77
2019-03-10T08:33:41.250Z,200.57
2019-03-10T08:35:07.260Z,185.80
2019-03-10T08:36:20.013Z,187.67
2019-03-10T08:37:33.941Z,148.90
2019-03-10T08:38:52.598Z,52.20
2019-03-10T08:40:02.181Z,103.20
2019-03-10T08:41:27.786Z,148.27
2019-03-10T08:42:40.556Z,143.17
2019-03-10T08:43:52.797Z,87.40
2019-03-10T08:45:08.272Z,85.97
2019-03-10T08:46:21.205Z,59.80
2019-03-10T08:47:31.799Z,13.70
2019-03-10T08:48:50.506Z,7.87
2019-03-10T08:50:00.356Z,64.20
2019-03-10T08:51:10.183Z,105.47
2019-03-10T08:52:19.811Z,14.40
2019-03-10T08:53:46.156Z,51.57
2019-03-10T08:55:04.253Z,16.43
2019-03-10T08:56:14.921Z,92.23
2019-03-10T08:57:25.638Z,38.47
2019-03-10T08:58:40.920Z,12.53
2019-03-10T08:59:50.695Z,68.40
2019-03-10T09:01:16.647Z,71.77
2019-03-10T09:02:42.993Z,32.63
2019-03-10T09:03:59.898Z,51.00
2019-03-10T09:05:10.262Z,99.00
2019-03-10T09:06:20.551Z,173.50
2019-03-10T09:07:37.837Z,79.53
2019-03-10T09:09:04.016Z,38.63
2019-03-10T09:10:32.406Z,67.77
2019-03-10T09:11:58.770Z,24.70
2019-03-10T09:13:08.593Z,96.93
2019-03-10T09:14:34.034Z,27.17
2019-03-10T09:15:42.155Z,7.23
2019-03-10T09:16:59.217Z,59.90
2019-03-10T09:18:08.937Z,83.10
2019-03-10T09:19:18.573Z,23.13
2019-03-10T09:20:31.381Z,11.80
2019-03-10T09:21:44.712Z,12.03
2019-03-10T09:23:10.635Z,19.73
2019-03-10T09:24:32.134Z,21.97
2019-03-10T09:25:58.604Z,13.10
2019-03-10T09:27:24.889Z,79.50
2019-03-10T09:28:55.504Z,24.47
2019-03-10T09:30:11.988Z,75.70
2019-03-10T09:31:21.673Z,23.73
2019-03-10T09:32:40.483Z,26.60
2019-03-10T09:33:53.051Z,41.07
2019-03-10T09:35:05.375Z,75.27
2019-03-10T09:36:23.609Z,82.63
2019-03-10T09:37:42.269Z,33.50
2019-03-10T09:38:58.153Z,42.33
2019-03-10T09:40:22.007Z,74.87
2019-03-10T09:41:47.805Z,19.77
2019-03-10T09:43:13.765Z,12.30
2019-03-10T09:44:28.887Z,11.57
2019-03-10T09:45:36.610Z,14.20
2019-03-10T09:47:04.240Z,9.57
2019-03-10T09:48:25.916Z,79.57
2019-03-10T09:49:36.167Z,4.87
2019-03-10T09:50:48.439Z,12.50
2019-03-10T09:51:58.935Z,10.50
2019-03-10T09:53:24.742Z,73.97
2019-03-10T09:54:34.258Z,6.77
2019-03-10T09:56:01.941Z,8.90
2019-03-10T09:57:14.413Z,66.30
2019-03-10T09:58:23.926Z,14.87
2019-03-10T09:59:33.628Z,45.17
2019-03-10T10:00:59.313Z,15.03
2019-03-10T10:02:18.118Z,72.00
2019-03-10T10:03:27.551Z,37.67
2019-03-10T10:04:36.910Z,8.40
2019-03-10T10:06:02.650Z,14.43
2019-03-10T10:07:12.205Z,115.40
2019-03-10T10:08:38.188Z,10.77
2019-03-10T10:10:02.705Z,18.73
2019-03-10T10:11:28.565Z,112.53
2019-03-10T10:12:44.236Z,23.30
2019-03-10T10:14:06.395Z,34.30
2019-03-10T10:15:14.302Z,102.30
2019-03-10T10:16:29.825Z,12.47
2019-03-10T10:17:39.324Z,11.10
2019-03-10T10:18:54.639Z,21.73
2019-03-10T10:20:07.116Z,33.20
2019-03-10T10:21:17.011Z,66.73
2019-03-10T10:22:29.061Z,14.40
2019-03-10T10:23:42.722Z,9.43
2019-03-10T10:24:52.437Z,17.27
2019-03-10T10:26:05.012Z,36.63
2019-03-10T10:27:17.398Z,86.20
2019-03-10T10:28:43.429Z,16.40
2019-03-10T10:29:57.021Z,6.17
2019-03-10T10:31:15.892Z,41.23
2019-03-10T10:32:34.346Z,16.63
2019-03-10T10:33:59.521Z,6.37
2019-03-10T10:35:17.863Z,59.10
2019-03-10T10:36:27.465Z,12.77
2019-03-10T10:37:39.867Z,9.93
2019-03-10T10:38:49.445Z,8.63
2019-03-10T10:39:58.970Z,25.03
2019-03-10T10:41:24.770Z,52.67
2019-03-10T10:42:38.687Z,11.27
2019-03-10T10:43:48.328Z,9.03
2019-03-10T10:45:14.467Z,11.70
2019-03-10T10:46:42.248Z,26.27
2019-03-10T10:48:06.887Z,12.13
2019-03-10T10:49:16.364Z,59.77
2019-03-10T10:50:44.513Z,27.50
2019-03-10T10:52:09.935Z,18.57
2019-03-10T10:53:37.746Z,68.13
2019-03-10T10:55:02.388Z,11.60
2019-03-10T10:56:30.522Z,66.93
2019-03-10T10:57:39.947Z,10.13
2019-03-10T10:58:49.767Z,13.63
2019-03-10T10:59:59.340Z,4.90
2019-03-10T11:01:27.147Z,71.70
2019-03-10T11:02:42.671Z,18.77
2019-03-10T11:04:04.421Z,11.90
2019-03-10T11:05:23.441Z,72.20
2019-03-10T11:06:33.058Z,11.63
2019-03-10T11:08:00.728Z,6.17
2019-03-10T11:09:20.490Z,58.60
2019-03-10T11:10:42.175Z,13.07
2019-03-10T11:11:51.816Z,13.93
2019-03-10T11:12:59.677Z,31.97
2019-03-10T11:14:15.363Z,42.37
2019-03-10T11:15:24.915Z,39.03
2019-03-10T11:16:37.291Z,6.57
2019-03-10T11:17:47.046Z,4.80
2019-03-10T11:18:54.738Z,9.87
2019-03-10T11:20:02.334Z,10.47
2019-03-10T11:21:20.856Z,68.07
2019-03-10T11:22:47.013Z,9.93
2019-03-10T11:25:13.535Z,58.00
2019-03-10T11:26:26.420Z,44.67
2019-03-10T11:27:38.870Z,17.67
2019-03-10T11:29:03.584Z,17.47
2019-03-10T11:30:12.837Z,19.53
2019-03-10T11:31:28.629Z,51.27
2019-03-10T11:32:51.481Z,19.77
2019-03-10T11:34:06.993Z,9.93
2019-03-10T11:35:33.054Z,69.70
2019-03-10T11:36:40.863Z,13.17
2019-03-10T11:37:53.551Z,30.80
2019-03-10T11:39:03.038Z,12.20
2019-03-10T11:40:29.523Z,71.73
2019-03-10T11:41:55.430Z,22.83
2019-03-10T11:43:14.163Z,18.73
2019-03-10T11:44:40.027Z,32.60
2019-03-10T11:45:50.974Z,17.37
2019-03-10T11:47:07.856Z,17.50
2019-03-10T11:48:17.499Z,18.57
2019-03-10T11:49:42.486Z,47.87
2019-03-10T11:50:55.092Z,29.27
2019-03-10T11:52:07.517Z,19.80
2019-03-10T11:53:22.640Z,59.67
2019-03-10T11:54:36.129Z,25.10
2019-03-10T11:55:44.053Z,23.50
2019-03-10T11:57:09.961Z,43.00
2019-03-10T11:58:39.204Z,80.43
2019-03-10T11:59:58.215Z,15.43
2019-03-10T12:01:07.896Z,15.50
2019-03-10T12:02:17.721Z,76.20
2019-03-10T12:03:39.310Z,72.47
2019-03-10T12:04:55.068Z,14.90
2019-03-10T12:06:10.866Z,18.17
2019-03-10T12:07:37.174Z,63.53
2019-03-10T12:08:54.067Z,14.13
2019-03-10T12:10:02.733Z,15.50
2019-03-10T12:11:10.771Z,22.73
2019-03-10T12:12:19.041Z,64.30
2019-03-10T12:13:27.194Z,50.97
2019-03-10T12:14:35.060Z,13.33
2019-03-10T12:15:43.277Z,11.17
2019-03-10T12:16:51.280Z,12.47
2019-03-10T12:17:59.550Z,8.67
2019-03-10T12:19:07.704Z,13.77
2019-03-10T12:20:16.002Z,61.20
2019-03-10T12:21:24.265Z,54.27
2019-03-10T12:22:32.372Z,12.47
2019-03-10T12:23:40.282Z,18.03
2019-03-10T12:24:48.289Z,25.83
2019-03-10T12:25:56.385Z,27.37
2019-03-10T12:27:04.420Z,22.67
2019-03-10T12:28:12.462Z,27.73
2019-03-10T12:29:20.206Z,53.70
2019-03-10T12:30:28.239Z,63.20
2019-03-10T12:31:36.203Z,18.80
2019-03-10T12:32:44.128Z,22.67
2019-03-10T12:33:52.508Z,13.20
2019-03-10T12:35:00.929Z,14.87
2019-03-10T12:36:09.056Z,19.27
2019-03-10T12:37:17.211Z,46.73
2019-03-10T12:38:25.028Z,51.73
2019-03-10T12:39:33.146Z,22.27
2019-03-10T12:40:41.193Z,10.43
2019-03-10T12:41:57.845Z,12.23
2019-03-10T12:42:59.055Z,10.97
2019-03-10T12:44:06.966Z,13.70
2019-03-10T12:45:15.183Z,36.77
2019-03-10T12:46:23.092Z,50.97
2019-03-10T12:47:31.107Z,50.83
2019-03-10T12:48:38.897Z,15.97
2019-03-10T12:49:46.623Z,16.03
2019-03-10T12:50:54.507Z,15.93
2019-03-10T12:52:02.471Z,12.90
2019-03-10T12:53:10.567Z,10.73
2019-03-10T12:54:18.560Z,57.23
2019-03-10T12:55:26.679Z,53.13
2019-03-10T12:56:34.490Z,16.00
2019-03-10T12:57:42.446Z,29.60
2019-03-10T12:58:50.512Z,16.77
2019-03-10T12:59:58.658Z,15.13
2019-03-10T13:01:07.134Z,13.87
2019-03-10T13:02:16.183Z,41.80
2019-03-10T13:03:24.387Z,64.13
2019-03-10T13:04:32.303Z,60.37
2019-03-10T13:05:40.292Z,10.67
2019-03-10T13:06:48.316Z,11.47
2019-03-10T13:07:56.473Z,10.20
2019-03-10T13:09:05.808Z,11.27
2019-03-10T13:10:14.474Z,22.00
2019-03-10T13:11:22.610Z,52.90
2019-03-10T13:12:31.048Z,62.80
2019-03-10T13:13:39.001Z,9.37
2019-03-10T13:14:46.689Z,12.93
2019-03-10T13:15:54.457Z,18.20
2019-03-10T13:17:02.781Z,32.83
2019-03-10T13:18:10.889Z,17.37
2019-03-10T13:19:19.050Z,67.67
2019-03-10T13:20:28.560Z,79.70
2019-03-10T13:21:36.832Z,14.87
2019-03-10T13:22:44.839Z,11.33
2019-03-10T13:23:52.848Z,11.60
2019-03-10T13:25:00.795Z,10.30
2019-03-10T13:26:10.330Z,22.27
2019-03-10T13:27:18.388Z,46.80
2019-03-10T13:28:26.170Z,59.40
2019-03-10T13:29:34.030Z,40.77
2019-03-10T13:30:42.543Z,18.10
2019-03-10T13:31:50.408Z,16.33
2019-03-10T13:32:58.797Z,12.70
2019-03-10T13:34:07.211Z,31.40
2019-03-10T13:35:15.501Z,31.13
2019-03-10T13:36:23.957Z,77.70
2019-03-10T13:37:32.004Z,63.20
2019-03-10T13:38:39.890Z,12.03
2019-03-10T13:39:47.685Z,12.97
2019-03-10T13:40:55.977Z,16.90
2019-03-10T13:42:04.048Z,20.27
2019-03-10T13:43:12.522Z,14.10
2019-03-10T13:44:20.850Z,68.03
2019-03-10T13:45:28.984Z,59.23
2019-03-10T13:46:37.096Z,13.77
2019-03-10T13:47:45.143Z,9.40
2019-03-10T13:48:53.174Z,6.17
2019-03-10T13:50:01.007Z,8.60
2019-03-10T13:51:09.385Z,11.83
2019-03-10T13:52:17.767Z,13.20
2019-03-10T13:53:25.814Z,55.73
2019-03-10T13:54:33.564Z,48.97
2019-03-10T13:55:41.525Z,6.13
2019-03-10T13:56:49.597Z,8.03
2019-03-10T13:57:57.548Z,14.47
2019-03-10T13:59:05.608Z,16.73
2019-03-10T14:00:27.226Z,8.70
2019-03-10T14:01:35.061Z,33.23
2019-03-10T14:02:42.957Z,8.47
2019-03-10T14:03:50.948Z,8.20
2019-03-10T14:04:59.048Z,13.33
2019-03-10T14:06:07.088Z,17.53
2019-03-10T14:07:15.319Z,6.87
2019-03-10T14:08:23.191Z,45.30
2019-03-10T14:09:31.174Z,46.67
2019-03-10T14:10:39.512Z,10.07
2019-03-10T14:11:47.417Z,7.93
2019-03-10T14:12:55.443Z,5.60
2019-03-10T14:14:03.638Z,11.27
2019-03-10T14:15:17.021Z,12.07
2019-03-10T14:16:24.998Z,44.13
2019-03-10T14:17:33.108Z,51.73
2019-03-10T14:18:41.202Z,5.43
2019-03-10T14:19:49.100Z,9.33
2019-03-10T14:20:57.260Z,30.10
2019-03-10T14:22:05.385Z,27.10
2019-03-10T14:23:13.414Z,19.50
2019-03-10T14:24:21.266Z,39.97
2019-03-10T14:25:29.300Z,54.80
2019-03-10T14:26:37.053Z,45.70
2019-03-10T14:27:45.227Z,16.87
2019-03-10T14:28:53.220Z,21.93
2019-03-10T14:30:01.249Z,26.53
2019-03-10T14:31:09.258Z,4.57
2019-03-10T14:32:17.227Z,7.70
2019-03-10T14:33:25.286Z,28.53
2019-03-10T14:34:33.175Z,29.43
2019-03-10T14:35:41.140Z,5.00
2019-03-10T14:36:48.923Z,3.70
2019-03-10T14:37:56.671Z,23.73
2019-03-10T14:39:06.124Z,10.87
2019-03-10T14:40:20.352Z,5.67
2019-03-10T14:41:28.464Z,29.77
2019-03-10T14:42:36.353Z,24.87
2019-03-10T14:43:44.359Z,11.93
2019-03-10T14:44:52.331Z,2.03
2019-03-10T14:46:00.164Z,2.90
2019-03-10T14:47:07.852Z,3.53
2019-03-10T14:48:16.027Z,3.80
2019-03-10T14:49:24.820Z,23.47
2019-03-10T14:50:32.774Z,29.17
2019-03-10T14:51:40.834Z,7.37
2019-03-10T14:52:49.027Z,5.10
2019-03-10T14:53:56.787Z,3.83
2019-03-10T14:55:07.190Z,3.53
2019-03-10T14:56:15.266Z,2.93
2019-03-10T14:57:23.038Z,16.13
2019-03-10T14:58:30.936Z,23.93
2019-03-10T14:59:40.364Z,14.53
2019-03-10T15:00:48.135Z,4.00
2019-03-10T15:01:55.997Z,6.87
2019-03-10T15:03:03.723Z,3.80
2019-03-10T15:04:11.821Z,6.17
2019-03-10T15:05:19.859Z,14.13
2019-03-10T15:06:27.810Z,28.23
2019-03-10T15:07:35.717Z,34.93
2019-03-10T15:08:46.208Z,3.27
2019-03-10T15:09:53.350Z,4.80
2019-03-10T15:11:01.329Z,4.03
2019-03-10T15:12:09.456Z,5.10